Time;durP1;ratioP1;P1;durP2;ratioP2;P2;SDS_P1;SDS_P2;PMS_P1;PMS_P2;Temp;Humidity;BMP_temperature;BMP_pressure;BME280_temperature;BME280_humidity;BME280_pressure;Samples;Min_cycle;Max_cycle;Signal;HPM_P1;HPM_P2
2023/09/20 00:01:33;;;;;;;5.55;2.70;;;16.40;99.90;;;;;;5141679;27;20865;-62
2023/09/20 00:04:02;;;;;;;6.47;2.70;;;16.40;99.90;;;;;;5132848;27;20024;-62
2023/09/20 00:06:28;;;;;;;7.75;2.65;;;16.40;99.90;;;;;;5118567;27;20364;-63
2023/09/20 00:08:53;;;;;;;8.35;2.67;;;16.40;99.90;;;;;;5134760;27;20046;-62
2023/09/20 00:11:19;;;;;;;6.70;2.78;;;16.50;99.90;;;;;;5108696;27;20054;-63
2023/09/20 00:13:45;;;;;;;8.95;3.35;;;16.50;99.90;;;;;;5120691;27;20375;-63
2023/09/20 00:16:11;;;;;;;7.63;3.33;;;16.50;99.90;;;;;;5127093;27;20137;-62
2023/09/20 00:18:37;;;;;;;8.45;2.65;;;16.50;99.90;;;;;;5129360;27;20118;-63
2023/09/20 00:21:03;;;;;;;11.05;3.30;;;16.50;99.90;;;;;;5127026;27;20567;-63
2023/09/20 00:23:29;;;;;;;6.22;2.35;;;16.60;99.90;;;;;;5116643;27;20047;-64
2023/09/20 00:25:55;;;;;;;7.47;2.70;;;16.60;99.90;;;;;;5122392;27;20042;-63
2023/09/20 00:28:21;;;;;;;8.85;2.38;;;16.60;99.90;;;;;;5132577;27;20043;-62
2023/09/20 00:30:47;;;;;;;6.72;2.70;;;16.60;99.90;;;;;;5115612;27;20039;-63
2023/09/20 00:33:14;;;;;;;10.70;3.20;;;16.60;99.90;;;;;;5129559;27;20050;-62
2023/09/20 00:35:39;;;;;;;6.63;2.20;;;16.60;99.90;;;;;;5153044;27;20034;-62
2023/09/20 00:38:06;;;;;;;7.10;3.08;;;16.60;99.90;;;;;;5135299;27;20362;-62
2023/09/20 00:40:37;;;;;;;9.40;3.22;;;16.70;99.90;;;;;;5140678;27;20060;-63
2023/09/20 00:43:09;;;;;;;8.98;2.72;;;16.70;99.90;;;;;;5124671;27;20039;-62
2023/09/20 00:45:36;;;;;;;10.48;3.25;;;16.70;99.90;;;;;;5134077;27;20046;-62
2023/09/20 00:48:05;;;;;;;6.35;3.10;;;16.70;99.90;;;;;;5133702;27;20039;-63
2023/09/20 00:50:31;;;;;;;8.27;2.50;;;16.70;99.90;;;;;;5116950;27;20039;-62
2023/09/20 00:52:58;;;;;;;9.00;2.50;;;16.70;99.90;;;;;;5128539;27;20049;-64
2023/09/20 00:55:28;;;;;;;9.05;3.20;;;16.80;99.90;;;;;;5141887;27;20409;-63
2023/09/20 00:57:59;;;;;;;9.55;2.42;;;16.80;99.90;;;;;;5129102;27;20034;-62
2023/09/20 01:00:29;;;;;;;5.28;2.95;;;16.80;99.90;;;;;;5120867;27;20118;-63
2023/09/20 01:02:57;;;;;;;7.65;2.97;;;16.80;99.90;;;;;;5125208;27;20042;-62
2023/09/20 01:05:25;;;;;;;6.03;2.38;;;16.80;99.90;;;;;;5109346;27;20111;-63
2023/09/20 01:07:56;;;;;;;7.22;2.28;;;16.80;99.90;;;;;;5122116;27;20034;-63
2023/09/20 01:10:23;;;;;;;7.70;2.20;;;16.80;99.90;;;;;;5114045;27;20058;-63
2023/09/20 01:13:00;;;;;;;5.32;2.00;;;16.80;99.90;;;;;;5134181;27;20103;-62
2023/09/20 01:15:27;;;;;;;6.45;2.47;;;16.80;99.90;;;;;;5121338;27;20046;-63
2023/09/20 01:17:57;;;;;;;4.25;2.10;;;16.90;99.90;;;;;;5118488;27;20418;-62
2023/09/20 01:20:24;;;;;;;6.60;2.58;;;16.90;99.90;;;;;;5114964;27;20129;-62
2023/09/20 01:22:54;;;;;;;8.77;3.33;;;16.90;99.90;;;;;;5133810;27;20031;-63
2023/09/20 01:25:27;;;;;;;6.30;2.10;;;16.90;99.90;;;;;;5136491;27;20083;-63
2023/09/20 01:27:55;;;;;;;5.63;2.28;;;16.90;99.90;;;;;;5113647;27;20051;-63
2023/09/20 01:30:25;;;;;;;6.90;2.50;;;16.90;99.90;;;;;;5116382;27;20650;-62
2023/09/20 01:32:53;;;;;;;7.85;2.20;;;16.90;99.90;;;;;;5114722;27;20050;-63
2023/09/20 01:35:19;;;;;;;6.78;2.70;;;16.90;99.90;;;;;;5116836;27;20091;-63
2023/09/20 01:37:45;;;;;;;6.32;2.45;;;16.90;99.90;;;;;;5116779;27;20807;-63
2023/09/20 01:40:18;;;;;;;6.13;1.98;;;16.90;99.90;;;;;;5099588;27;20047;-62
2023/09/20 01:42:50;;;;;;;8.68;2.13;;;16.90;99.90;;;;;;5116173;27;20071;-63
2023/09/20 01:45:20;;;;;;;7.07;2.72;;;16.90;99.90;;;;;;5099985;27;20409;-63
2023/09/20 01:47:49;;;;;;;11.75;2.50;;;16.90;99.90;;;;;;5113946;27;20122;-63
2023/09/20 01:50:19;;;;;;;5.75;2.00;;;16.90;99.90;;;;;;5115365;27;20034;-63
2023/09/20 01:52:53;;;;;;;6.82;2.35;;;16.90;99.90;;;;;;5114597;27;20078;-64
2023/09/20 01:55:24;;;;;;;6.95;2.28;;;16.90;99.90;;;;;;5113914;27;20047;-62
2023/09/20 01:57:54;;;;;;;7.93;2.55;;;16.90;99.90;;;;;;5111754;27;20095;-63
2023/09/20 02:00:39;;;;;;;6.97;2.47;;;16.90;99.90;;;;;;5117554;27;20051;-63
2023/09/20 02:03:13;;;;;;;7.15;1.85;;;16.90;99.90;;;;;;5113787;27;20046;-63
2023/09/20 02:05:40;;;;;;;7.07;2.30;;;16.90;99.90;;;;;;5113712;27;20492;-62
2023/09/20 02:08:07;;;;;;;7.05;2.20;;;17.00;99.90;;;;;;5112963;27;20046;-62
2023/09/20 02:10:36;;;;;;;6.60;2.10;;;17.00;99.90;;;;;;5121293;27;20083;-63
2023/09/20 02:13:03;;;;;;;8.35;2.53;;;17.00;99.90;;;;;;5136977;27;20094;-63
2023/09/20 02:15:30;;;;;;;6.03;2.05;;;17.00;99.90;;;;;;5123908;27;20137;-63
2023/09/20 02:17:56;;;;;;;8.45;2.47;;;17.00;99.90;;;;;;5135481;27;20041;-63
2023/09/20 02:20:23;;;;;;;7.00;2.38;;;17.00;99.90;;;;;;5115760;27;20047;-63
2023/09/20 02:22:52;;;;;;;5.30;2.42;;;17.00;99.90;;;;;;5121521;27;20102;-63
2023/09/20 02:25:22;;;;;;;5.05;2.20;;;17.00;99.90;;;;;;5117273;27;20096;-63
2023/09/20 02:27:59;;;;;;;6.28;1.92;;;17.00;99.90;;;;;;5116218;27;20042;-62
2023/09/20 02:30:35;;;;;;;6.97;2.20;;;17.00;99.90;;;;;;5120071;27;20131;-63
2023/09/20 02:33:06;;;;;;;5.93;2.28;;;17.00;99.90;;;;;;5120773;27;20822;-63
2023/09/20 02:35:32;;;;;;;7.30;2.30;;;17.00;99.90;;;;;;5137747;27;20130;-63
2023/09/20 02:37:59;;;;;;;6.38;2.42;;;17.00;99.90;;;;;;5118337;27;20039;-63
2023/09/20 02:40:28;;;;;;;7.57;2.20;;;17.00;99.90;;;;;;5123992;27;20121;-63
2023/09/20 02:42:58;;;;;;;10.75;2.40;;;17.00;99.90;;;;;;5124226;27;20047;-63
2023/09/20 02:45:25;;;;;;;9.13;2.13;;;16.90;99.90;;;;;;5126528;27;20034;-63
2023/09/20 02:47:51;;;;;;;4.45;1.98;;;16.90;99.90;;;;;;5148329;27;20520;-63
2023/09/20 02:50:22;;;;;;;5.82;2.25;;;16.90;99.90;;;;;;5116232;27;20031;-62
2023/09/20 02:52:48;;;;;;;7.47;2.17;;;16.90;99.90;;;;;;5134251;27;20031;-63
2023/09/20 02:55:17;;;;;;;7.57;2.28;;;16.90;99.90;;;;;;5113698;27;20600;-63
2023/09/20 02:57:43;;;;;;;8.43;2.63;;;16.90;99.90;;;;;;5119882;27;20564;-63
2023/09/20 03:00:15;;;;;;;9.40;2.85;;;16.90;99.90;;;;;;5125600;27;20031;-63
2023/09/20 03:02:49;;;;;;;9.05;2.95;;;16.90;99.90;;;;;;5132647;27;20027;-63
2023/09/20 03:05:21;;;;;;;9.90;2.95;;;16.90;99.90;;;;;;5131918;27;20031;-63
2023/09/20 03:07:48;;;;;;;7.75;2.53;;;16.90;99.90;;;;;;5123580;27;20038;-63
2023/09/20 03:10:16;;;;;;;10.02;2.80;;;16.90;99.90;;;;;;5119484;27;20501;-63
2023/09/20 03:12:46;;;;;;;7.43;2.42;;;16.90;99.90;;;;;;5118042;27;20039;-62
2023/09/20 03:15:17;;;;;;;10.68;2.92;;;16.90;99.90;;;;;;5133826;27;20038;-63
2023/09/20 03:17:44;;;;;;;10.98;4.07;;;16.90;99.90;;;;;;5130268;27;20091;-62
2023/09/20 03:20:10;;;;;;;6.03;2.45;;;16.90;99.90;;;;;;5118296;27;20490;-63
2023/09/20 03:22:37;;;;;;;5.20;2.40;;;16.80;99.90;;;;;;5109603;27;20500;-63
2023/09/20 03:25:13;;;;;;;8.57;2.97;;;16.80;99.90;;;;;;5112466;28;20482;-63
2023/09/20 03:27:42;;;;;;;6.80;2.67;;;16.80;99.90;;;;;;5117052;27;20046;-63
2023/09/20 03:30:13;;;;;;;5.53;2.20;;;16.70;99.90;;;;;;5132445;27;20072;-63
2023/09/20 03:32:42;;;;;;;10.45;3.15;;;16.70;99.90;;;;;;5130736;27;20049;-63
2023/09/20 03:35:09;;;;;;;5.78;2.33;;;16.70;99.90;;;;;;5113623;27;20115;-63
2023/09/20 03:37:40;;;;;;;6.78;2.60;;;16.70;99.90;;;;;;5123052;27;20043;-62
2023/09/20 03:40:17;;;;;;;7.00;2.50;;;16.60;99.90;;;;;;5127244;27;20035;-62
2023/09/20 03:42:44;;;;;;;9.02;2.72;;;16.60;99.90;;;;;;5128248;27;20041;-63
2023/09/20 03:45:11;;;;;;;9.35;2.58;;;16.60;99.90;;;;;;5124768;27;20039;-63
2023/09/20 03:47:53;;;;;;;12.63;3.65;;;16.50;99.90;;;;;;5115633;27;20040;-63
2023/09/20 03:50:19;;;;;;;8.52;2.58;;;16.50;99.90;;;;;;5122573;27;20031;-63
2023/09/20 03:52:46;;;;;;;7.40;2.63;;;16.50;99.90;;;;;;5119304;27;20126;-63
2023/09/20 03:55:12;;;;;;;7.97;2.08;;;16.50;99.90;;;;;;5114240;27;20158;-63
2023/09/20 03:57:38;;;;;;;11.18;2.78;;;16.40;99.90;;;;;;5117638;27;20044;-63
2023/09/20 04:00:11;;;;;;;6.63;2.20;;;16.40;99.90;;;;;;5125180;27;20089;-63
2023/09/20 04:02:38;;;;;;;5.78;2.30;;;16.40;99.90;;;;;;5113619;27;20036;-63
2023/09/20 04:05:11;;;;;;;6.57;2.15;;;16.30;99.90;;;;;;5121988;27;20450;-63
2023/09/20 04:07:37;;;;;;;7.25;2.50;;;16.30;99.90;;;;;;5118978;27;20036;-63
2023/09/20 04:10:03;;;;;;;5.45;2.50;;;16.30;99.90;;;;;;5114395;27;20052;-63
2023/09/20 04:12:29;;;;;;;5.80;2.55;;;16.30;99.90;;;;;;5123948;27;20366;-63
2023/09/20 04:14:55;;;;;;;9.23;2.53;;;16.20;99.90;;;;;;5116736;27;20031;-62
2023/09/20 04:17:26;;;;;;;8.10;2.65;;;16.20;99.90;;;;;;5111989;28;20040;-63
2023/09/20 04:19:53;;;;;;;6.38;2.30;;;16.20;99.90;;;;;;5123469;27;20043;-62
2023/09/20 04:22:19;;;;;;;9.32;2.60;;;16.20;99.90;;;;;;5111148;27;20498;-63
2023/09/20 04:24:44;;;;;;;8.35;3.00;;;16.10;99.90;;;;;;5112064;27;20027;-63
2023/09/20 04:27:10;;;;;;;8.25;2.97;;;16.10;99.90;;;;;;5116217;27;20030;-62
2023/09/20 04:29:36;;;;;;;7.22;2.80;;;16.10;99.90;;;;;;5131077;27;20083;-63
2023/09/20 04:32:01;;;;;;;7.45;2.60;;;16.10;99.90;;;;;;5130625;27;20485;-63
2023/09/20 04:34:27;;;;;;;6.00;2.15;;;16.10;99.90;;;;;;5125489;27;20047;-63
2023/09/20 04:36:53;;;;;;;5.75;2.88;;;16.10;99.90;;;;;;5131279;27;20500;-63
2023/09/20 04:39:24;;;;;;;8.32;2.53;;;16.10;99.90;;;;;;5113701;27;20123;-63
2023/09/20 04:41:50;;;;;;;7.00;2.30;;;16.00;99.90;;;;;;5110588;28;20083;-63
2023/09/20 04:44:16;;;;;;;5.40;2.15;;;16.00;99.90;;;;;;5121898;27;20428;-63
2023/09/20 04:46:42;;;;;;;8.82;2.67;;;16.00;99.90;;;;;;5131008;27;20087;-64
2023/09/20 04:49:10;;;;;;;7.13;2.47;;;16.00;99.90;;;;;;5104272;28;20104;-63
2023/09/20 04:51:37;;;;;;;4.75;1.98;;;16.00;99.90;;;;;;5110426;28;20054;-62
2023/09/20 04:54:04;;;;;;;9.57;3.13;;;16.00;99.90;;;;;;5111533;27;20107;-63
2023/09/20 04:56:30;;;;;;;6.18;2.60;;;16.00;99.90;;;;;;5124924;27;20502;-63
2023/09/20 04:58:57;;;;;;;5.65;2.25;;;16.00;99.90;;;;;;5127187;27;20060;-63
2023/09/20 05:01:26;;;;;;;10.98;3.42;;;15.90;99.90;;;;;;5111074;28;20177;-63
2023/09/20 05:03:51;;;;;;;6.57;2.22;;;15.90;99.90;;;;;;5117246;27;20055;-63
2023/09/20 05:06:18;;;;;;;6.72;2.55;;;15.80;99.90;;;;;;5130023;27;20123;-62
2023/09/20 05:08:44;;;;;;;6.88;2.17;;;15.80;99.90;;;;;;5127916;27;20463;-61
2023/09/20 05:11:10;;;;;;;5.40;2.20;;;15.80;99.90;;;;;;5115534;27;20075;-62
2023/09/20 05:13:41;;;;;;;6.75;2.28;;;15.70;99.90;;;;;;5122399;27;20115;-62
2023/09/20 05:16:07;;;;;;;5.20;2.33;;;15.70;99.90;;;;;;5117168;27;20047;-62
2023/09/20 05:18:32;;;;;;;6.78;2.63;;;15.70;99.90;;;;;;5105838;27;20036;-62
2023/09/20 05:20:58;;;;;;;6.60;2.00;;;15.70;99.90;;;;;;5096116;27;20039;-63
2023/09/20 05:23:24;;;;;;;6.80;2.28;;;15.60;99.90;;;;;;5095057;28;20036;-63
2023/09/20 05:25:51;;;;;;;8.48;2.38;;;15.60;99.90;;;;;;5107602;27;20553;-63
2023/09/20 05:28:17;;;;;;;7.35;2.60;;;15.60;99.90;;;;;;5109490;28;20031;-63
2023/09/20 05:30:44;;;;;;;8.90;2.33;;;15.60;99.90;;;;;;5108431;28;20046;-63
2023/09/20 05:33:12;;;;;;;5.25;2.30;;;15.60;99.90;;;;;;5116456;27;20039;-62
2023/09/20 05:35:41;;;;;;;7.00;2.50;;;15.60;99.90;;;;;;5104629;28;20036;-63
2023/09/20 05:38:10;;;;;;;;;;;15.60;99.90;;;;;;5110447;28;20039;-63
2023/09/20 05:40:37;;;;;;;7.07;2.40;;;15.60;99.90;;;;;;5109575;28;19959;-64
2023/09/20 05:43:04;;;;;;;7.07;2.50;;;15.60;99.90;;;;;;5116198;27;20111;-64
2023/09/20 05:45:36;;;;;;;5.38;2.28;;;15.60;99.90;;;;;;5120687;27;20035;-63
2023/09/20 05:48:02;;;;;;;7.50;2.25;;;15.60;99.90;;;;;;5115985;27;20832;-63
2023/09/20 05:50:34;;;;;;;5.20;2.10;;;15.70;99.90;;;;;;5115225;27;20467;-63
2023/09/20 05:53:01;;;;;;;5.38;2.35;;;15.70;99.90;;;;;;5125512;27;20035;-63
2023/09/20 05:55:31;;;;;;;7.30;2.75;;;15.70;99.90;;;;;;5129245;27;20069;-63
2023/09/20 05:57:58;;;;;;;4.38;1.92;;;15.70;99.90;;;;;;5139992;27;20408;-63
2023/09/20 06:00:23;;;;;;;5.22;2.10;;;15.70;99.90;;;;;;5142905;27;20043;-63
2023/09/20 06:02:52;;;;;;;5.28;2.30;;;15.80;99.90;;;;;;5120598;27;20450;-63
2023/09/20 06:05:24;;;;;;;3.97;2.05;;;15.80;99.90;;;;;;5118604;27;20508;-63
2023/09/20 06:07:51;;;;;;;8.32;2.13;;;15.80;99.90;;;;;;5124831;27;20481;-63
2023/09/20 06:10:18;;;;;;;4.38;2.00;;;15.90;99.90;;;;;;5127316;27;20034;-63
2023/09/20 06:12:45;;;;;;;3.58;2.35;;;15.90;99.90;;;;;;5158142;27;20133;-63
2023/09/20 06:15:14;;;;;;;7.82;3.28;;;15.90;99.90;;;;;;5128422;27;20118;-62
2023/09/20 06:17:44;;;;;;;6.57;2.30;;;15.90;99.90;;;;;;5130907;27;20047;-62
2023/09/20 06:20:13;;;;;;;6.72;2.20;;;16.00;99.90;;;;;;5146761;27;20431;-63
2023/09/20 06:22:39;;;;;;;5.97;2.13;;;16.10;99.90;;;;;;5118654;27;20039;-63
2023/09/20 06:25:06;;;;;;;7.88;2.83;;;16.20;99.90;;;;;;5147808;27;20414;-63
2023/09/20 06:27:32;;;;;;;5.93;2.35;;;16.30;99.90;;;;;;5118825;27;20126;-63
2023/09/20 06:30:12;;;;;;;5.05;2.47;;;16.40;99.90;;;;;;5123850;27;20524;-63
2023/09/20 06:32:38;;;;;;;6.25;2.22;;;16.50;99.90;;;;;;5122254;27;20801;-63
2023/09/20 06:35:05;;;;;;;6.22;2.42;;;16.50;99.90;;;;;;5135307;27;20069;-63
2023/09/20 06:37:30;;;;;;;5.07;1.92;;;16.50;99.90;;;;;;5132532;27;20512;-63
2023/09/20 06:39:57;;;;;;;5.65;2.00;;;16.60;99.90;;;;;;5136831;27;20065;-63
2023/09/20 06:42:26;;;;;;;4.57;2.38;;;16.70;99.90;;;;;;5141365;27;20051;-63
2023/09/20 06:44:55;;;;;;;5.45;2.70;;;16.70;99.90;;;;;;5118807;27;20043;-63
2023/09/20 06:47:21;;;;;;;7.20;2.70;;;16.80;99.90;;;;;;5118923;27;20054;-64
2023/09/20 06:49:47;;;;;;;7.65;2.60;;;16.80;99.90;;;;;;5123307;27;20027;-63
2023/09/20 06:52:13;;;;;;;8.50;2.88;;;16.80;99.90;;;;;;5118914;27;20098;-62
2023/09/20 06:54:39;;;;;;;6.50;2.60;;;16.90;99.90;;;;;;5134928;27;20102;-63
2023/09/20 06:57:05;;;;;;;5.38;2.03;;;16.90;99.90;;;;;;5115477;27;20050;-63
2023/09/20 06:59:33;;;;;;;3.58;1.90;;;16.90;99.90;;;;;;5129406;27;20039;-63
2023/09/20 07:02:02;;;;;;;6.53;2.50;;;16.90;99.90;;;;;;5135795;27;20043;-63
2023/09/20 07:04:28;;;;;;;7.18;2.22;;;17.00;99.90;;;;;;5135519;27;20087;-63
2023/09/20 07:06:57;;;;;;;6.80;2.58;;;17.00;99.90;;;;;;5130720;27;20054;-63
2023/09/20 07:09:23;;;;;;;5.35;2.20;;;17.00;99.90;;;;;;5123847;27;20047;-63
2023/09/20 07:11:53;;;;;;;6.25;2.47;;;17.10;99.90;;;;;;5102978;27;20076;-62
2023/09/20 07:14:21;;;;;;;7.68;2.50;;;17.10;99.90;;;;;;5115721;27;20489;-63
2023/09/20 07:16:49;;;;;;;7.60;2.47;;;17.10;99.90;;;;;;5133036;27;20079;-63
2023/09/20 07:19:17;;;;;;;6.13;2.58;;;17.20;99.90;;;;;;5128274;27;20053;-63
2023/09/20 07:21:44;;;;;;;5.57;2.15;;;17.30;99.90;;;;;;5117202;27;20115;-64
2023/09/20 07:24:12;;;;;;;9.00;2.78;;;17.40;99.90;;;;;;5142724;27;20039;-63
2023/09/20 07:26:44;;;;;;;7.35;2.42;;;17.40;99.90;;;;;;5130513;27;20119;-63
2023/09/20 07:29:14;;;;;;;;;;;17.50;99.90;;;;;;5115454;27;20041;-63
2023/09/20 07:31:40;;;;;;;7.45;2.47;;;17.50;99.90;;;;;;5115256;27;19916;-63
2023/09/20 07:34:12;;;;;;;6.55;2.22;;;17.50;99.90;;;;;;5102303;27;20050;-62
2023/09/20 07:36:40;;;;;;;;;;;17.60;99.90;;;;;;5143580;27;20034;-62
2023/09/20 07:39:12;;;;;;;6.07;2.53;;;17.60;99.90;;;;;;5126762;27;19946;-62
2023/09/20 07:41:50;;;;;;;;;;;17.60;99.90;;;;;;5117750;27;20058;-63
2023/09/20 07:44:23;;;;;;;8.00;3.17;;;17.60;99.90;;;;;;5136821;27;20426;-62
2023/09/20 07:46:52;;;;;;;6.13;2.40;;;17.50;99.90;;;;;;5114818;27;20486;-63
2023/09/20 07:49:19;;;;;;;5.25;2.10;;;17.50;99.90;;;;;;5127129;27;20090;-63
2023/09/20 07:51:45;;;;;;;5.25;2.17;;;17.50;99.90;;;;;;5097362;27;20039;-63
2023/09/20 07:54:10;;;;;;;6.57;2.55;;;17.50;99.90;;;;;;5123270;27;20550;-63
2023/09/20 07:56:43;;;;;;;8.48;2.50;;;17.60;99.90;;;;;;5148683;27;20556;-62
2023/09/20 07:59:09;;;;;;;;;;;17.60;99.90;;;;;;5135038;27;20043;-62
2023/09/20 08:01:35;;;;;;;6.82;2.20;;;17.70;99.90;;;;;;5129004;27;19930;-63
2023/09/20 08:04:06;;;;;;;6.53;2.42;;;17.80;99.90;;;;;;5112378;27;20047;-63
2023/09/20 08:06:33;;;;;;;7.00;2.70;;;17.80;99.90;;;;;;5152043;27;20489;-62
2023/09/20 08:08:59;;;;;;;7.18;2.50;;;17.80;99.90;;;;;;5132990;27;20034;-62
2023/09/20 08:11:26;;;;;;;5.30;2.60;;;17.80;99.90;;;;;;5127963;27;20065;-63
2023/09/20 08:13:53;;;;;;;6.10;2.25;;;17.70;99.90;;;;;;5134689;27;20046;-63
2023/09/20 08:16:20;;;;;;;5.90;2.22;;;17.60;99.90;;;;;;5133780;27;20107;-62
2023/09/20 08:19:06;;;;;;;6.82;2.20;;;17.50;99.90;;;;;;5134719;27;20114;-63
2023/09/20 08:21:33;;;;;;;6.60;2.70;;;17.50;99.90;;;;;;5133983;27;20075;-63
2023/09/20 09:00:21;;;;;;;6.75;2.50;;;17.60;99.90;;;;;;5139944;27;20043;-62
2023/09/20 09:02:53;;;;;;;3.40;2.00;;;17.60;99.90;;;;;;5128750;27;20203;-62
2023/09/20 09:05:21;;;;;;;5.32;2.38;;;17.60;99.90;;;;;;5128116;27;20463;-62
2023/09/20 09:07:47;;;;;;;6.35;3.03;;;17.60;99.90;;;;;;5125494;27;20038;-62
2023/09/20 09:10:13;;;;;;;3.97;2.05;;;17.60;99.90;;;;;;5128066;27;20042;-62
2023/09/20 09:12:40;;;;;;;5.90;2.70;;;17.60;99.90;;;;;;5107559;27;20734;-62
2023/09/20 09:15:08;;;;;;;4.43;2.10;;;17.60;99.90;;;;;;5113032;27;20043;-62
2023/09/20 09:18:00;;;;;;;15.98;2.40;;;17.70;99.90;;;;;;5115646;27;20400;-62
2023/09/20 09:20:29;;;;;;;3.38;1.98;;;17.80;99.90;;;;;;5109305;27;20095;-62
2023/09/20 09:22:55;;;;;;;6.22;2.38;;;17.90;99.90;;;;;;5112872;27;20100;-61
2023/09/20 09:25:30;;;;;;;5.80;2.30;;;18.00;99.90;;;;;;5117385;27;20066;-62
2023/09/20 09:27:56;;;;;;;5.15;2.10;;;18.10;99.90;;;;;;5113444;27;20355;-62
2023/09/20 09:30:22;;;;;;;3.78;2.05;;;18.30;99.90;;;;;;5112914;27;20279;-62
2023/09/20 09:32:48;;;;;;;3.25;1.90;;;18.50;99.90;;;;;;5150832;27;20066;-63
2023/09/20 09:35:19;;;;;;;4.07;1.70;;;18.70;99.90;;;;;;5126840;27;20107;-62
2023/09/20 09:37:44;;;;;;;3.50;1.80;;;18.90;99.90;;;;;;5132322;27;20118;-63
2023/09/20 09:40:14;;;;;;;5.63;1.80;;;18.90;99.90;;;;;;5105987;27;20118;-62
2023/09/20 09:42:43;;;;;;;4.63;1.50;;;18.90;99.90;;;;;;5095906;27;20122;-62
2023/09/20 09:45:09;;;;;;;2.63;1.45;;;18.90;99.90;;;;;;5102894;27;20047;-62
2023/09/20 09:47:36;;;;;;;4.32;1.58;;;18.80;99.90;;;;;;5133175;27;20488;-62
2023/09/20 09:50:09;;;;;;;3.42;1.48;;;18.80;99.90;;;;;;5132735;27;20043;-63
2023/09/20 09:52:39;;;;;;;3.00;1.80;;;18.70;99.90;;;;;;5115365;27;20049;-63
2023/09/20 09:55:06;;;;;;;3.35;1.60;;;18.60;99.90;;;;;;5113984;27;20043;-62
2023/09/20 09:57:31;;;;;;;2.95;1.30;;;18.60;99.90;;;;;;5122857;27;20042;-62
2023/09/20 09:59:57;;;;;;;3.88;1.60;;;18.60;99.90;;;;;;5149444;27;20038;-63
2023/09/20 10:02:31;;;;;;;5.15;1.70;;;18.60;99.90;;;;;;5112195;27;20035;-64
2023/09/20 10:05:01;;;;;;;2.35;1.52;;;18.60;99.90;;;;;;5120505;27;20163;-63
2023/09/20 10:07:33;;;;;;;6.47;1.50;;;18.60;99.90;;;;;;5119959;27;20412;-63
2023/09/20 10:10:08;;;;;;;3.15;1.60;;;18.60;99.90;;;;;;5144590;27;20031;-62
2023/09/20 10:12:36;;;;;;;2.95;1.25;;;18.60;99.90;;;;;;5122395;27;20035;-63
2023/09/20 10:15:07;;;;;;;2.50;1.20;;;18.60;99.90;;;;;;5111645;27;20051;-63
2023/09/20 10:17:34;;;;;;;6.25;1.45;;;18.60;99.90;;;;;;5140053;27;20393;-62
2023/09/20 10:20:07;;;;;;;3.42;1.45;;;18.60;99.90;;;;;;5119285;27;20039;-62
2023/09/20 10:22:40;;;;;;;3.03;1.60;;;18.60;99.90;;;;;;5118579;27;20075;-63
2023/09/20 10:25:29;;;;;;;3.15;1.60;;;18.60;99.90;;;;;;5127501;27;20039;-62
2023/09/20 10:27:55;;;;;;;2.65;1.80;;;18.60;99.90;;;;;;5120915;27;20388;-62
2023/09/20 10:30:21;;;;;;;4.90;1.60;;;18.50;99.90;;;;;;5153526;27;20038;-62
2023/09/20 10:32:47;;;;;;;3.70;1.60;;;18.60;99.90;;;;;;5155360;27;20073;-62
2023/09/20 10:35:29;;;;;;;3.67;1.67;;;18.60;99.90;;;;;;5101552;27;20463;-62
2023/09/20 10:38:23;;;;;;;4.30;1.77;;;18.60;99.90;;;;;;5135592;27;20042;-63
2023/09/20 10:40:51;;;;;;;4.00;1.40;;;18.60;99.90;;;;;;5111749;27;20566;-62
2023/09/20 10:43:41;;;;;;;3.30;1.30;;;18.60;99.90;;;;;;5120527;27;20067;-62
2023/09/20 10:46:11;;;;;;;5.22;1.73;;;18.50;99.90;;;;;;5127007;27;20055;-62
2023/09/20 10:48:41;;;;;;;2.80;1.30;;;18.50;99.90;;;;;;5116530;27;20120;-62
2023/09/20 10:51:07;;;;;;;3.70;1.50;;;18.50;99.90;;;;;;5115683;27;20039;-63
2023/09/20 10:53:42;;;;;;;2.42;1.33;;;18.50;99.90;;;;;;5124145;27;20042;-62
2023/09/20 10:56:09;;;;;;;2.25;1.30;;;18.50;99.90;;;;;;5123917;27;20082;-62
2023/09/20 10:58:38;;;;;;;3.83;1.50;;;18.50;99.90;;;;;;5132237;27;20042;-62
2023/09/20 11:01:06;;;;;;;3.28;1.63;;;18.40;99.90;;;;;;5142037;27;20074;-63
2023/09/20 11:03:32;;;;;;;4.75;1.48;;;18.50;99.90;;;;;;5115799;27;20091;-63
2023/09/20 11:05:58;;;;;;;2.60;1.80;;;18.50;99.90;;;;;;5120784;27;20482;-62
2023/09/20 11:08:24;;;;;;;1.85;1.30;;;18.50;99.90;;;;;;5141091;27;20389;-62
2023/09/20 11:10:50;;;;;;;4.13;1.75;;;18.50;99.90;;;;;;5154351;27;20033;-63
2023/09/20 11:13:19;;;;;;;2.88;1.40;;;18.50;99.90;;;;;;5132933;27;20043;-63
2023/09/20 11:15:47;;;;;;;4.47;1.80;;;18.60;99.90;;;;;;5133806;27;20082;-62
2023/09/20 11:18:19;;;;;;;3.53;1.58;;;18.50;99.90;;;;;;5132834;27;20041;-62
2023/09/20 11:20:48;;;;;;;4.40;1.80;;;18.60;99.90;;;;;;5135547;27;20047;-63
2023/09/20 11:23:14;;;;;;;3.15;1.50;;;18.60;99.90;;;;;;5135687;27;20396;-63
2023/09/20 11:25:42;;;;;;;3.28;1.60;;;18.70;99.90;;;;;;5134112;27;20118;-63
2023/09/20 11:28:09;;;;;;;5.93;1.90;;;18.80;99.90;;;;;;5129314;27;20098;-63
2023/09/20 11:30:34;;;;;;;4.10;1.55;;;18.80;99.90;;;;;;5122526;27;20046;-62
2023/09/20 11:33:03;;;;;;;3.30;1.60;;;18.80;99.90;;;;;;5102301;27;20041;-62
2023/09/20 11:35:39;;;;;;;4.10;1.52;;;18.90;99.90;;;;;;5132916;27;20035;-62
2023/09/20 11:38:07;;;;;;;4.57;1.65;;;18.90;99.90;;;;;;5114896;27;20043;-63
2023/09/20 11:40:37;;;;;;;2.88;2.00;;;19.00;99.90;;;;;;5133230;27;20433;-62
2023/09/20 11:43:04;;;;;;;4.80;1.80;;;19.10;99.90;;;;;;5149442;27;20429;-63
2023/09/20 11:45:30;;;;;;;3.67;1.80;;;19.20;99.90;;;;;;5134394;27;20045;-62
2023/09/20 11:47:56;;;;;;;4.70;1.90;;;19.30;99.90;;;;;;5134686;27;20412;-62
2023/09/20 11:50:25;;;;;;;4.15;1.95;;;19.50;99.90;;;;;;5129294;27;20489;-63
2023/09/20 11:52:51;;;;;;;3.47;1.88;;;19.60;99.90;;;;;;5131516;27;20110;-63
2023/09/20 11:55:19;;;;;;;4.97;2.15;;;19.60;99.90;;;;;;5131535;27;20122;-63
2023/09/20 11:57:45;;;;;;;5.28;2.17;;;19.70;99.90;;;;;;5118447;27;20516;-64
2023/09/20 12:00:19;;;;;;;4.78;2.30;;;19.70;99.90;;;;;;5129570;27;20070;-63
2023/09/20 12:02:48;;;;;;;3.88;2.17;;;19.70;99.90;;;;;;5117601;27;20051;-63
2023/09/20 12:05:14;;;;;;;8.30;2.30;;;19.70;99.90;;;;;;5114277;27;20027;-63
2023/09/20 12:07:39;;;;;;;4.35;2.08;;;19.70;99.90;;;;;;5113664;27;20042;-62
2023/09/20 12:10:06;;;;;;;1.98;1.73;;;19.70;99.90;;;;;;5132604;27;20035;-63
2023/09/20 12:12:33;;;;;;;5.85;2.67;;;19.80;99.90;;;;;;5101759;27;20075;-63
2023/09/20 12:14:59;;;;;;;6.25;2.47;;;19.80;99.90;;;;;;5119594;27;20117;-63
2023/09/20 12:17:25;;;;;;;5.22;2.60;;;19.80;99.90;;;;;;5140295;27;20114;-63
2023/09/20 12:19:50;;;;;;;5.15;2.70;;;19.80;99.90;;;;;;5113650;27;20039;-62
2023/09/20 12:22:17;;;;;;;4.57;2.55;;;19.90;99.90;;;;;;5113673;27;20058;-63
2023/09/20 12:24:43;;;;;;;4.95;2.30;;;19.90;99.90;;;;;;5114489;27;20046;-63
2023/09/20 12:27:08;;;;;;;4.65;2.40;;;20.00;99.90;;;;;;5122191;27;20035;-63
2023/09/20 12:29:34;;;;;;;3.35;2.30;;;19.90;99.90;;;;;;5113931;27;20036;-63
2023/09/20 12:31:59;;;;;;;5.82;2.20;;;20.00;99.90;;;;;;5140473;27;20030;-63
2023/09/20 12:34:25;;;;;;;3.55;2.30;;;19.90;99.90;;;;;;5137414;27;20062;-63
2023/09/20 12:36:51;;;;;;;7.03;2.53;;;19.90;99.90;;;;;;5149903;27;20043;-62
2023/09/20 12:39:17;;;;;;;5.75;2.47;;;20.00;99.90;;;;;;5115706;27;20485;-62
2023/09/20 12:41:42;;;;;;;5.32;2.72;;;20.00;99.90;;;;;;5132048;27;20046;-63
2023/09/20 12:44:09;;;;;;;4.97;2.40;;;20.00;99.90;;;;;;5113552;27;20123;-62
2023/09/20 12:46:37;;;;;;;5.72;2.45;;;20.00;99.90;;;;;;5143528;27;20046;-63
2023/09/20 12:49:04;;;;;;;5.38;2.28;;;20.00;99.90;;;;;;5133448;27;20447;-63
2023/09/20 12:51:30;;;;;;;3.80;2.08;;;20.10;99.90;;;;;;5133236;27;20042;-63
2023/09/20 12:53:56;;;;;;;4.35;2.10;;;20.30;99.90;;;;;;5132996;27;20066;-63
2023/09/20 12:56:22;;;;;;;3.13;1.83;;;20.40;99.90;;;;;;5151992;27;20154;-63
2023/09/20 12:58:50;;;;;;;6.40;2.28;;;20.40;99.90;;;;;;5147828;27;20455;-63
2023/09/20 13:01:16;;;;;;;3.65;2.20;;;20.40;99.90;;;;;;5130644;27;20493;-63
2023/09/20 13:03:41;;;;;;;3.55;1.80;;;20.50;99.90;;;;;;5145130;27;20135;-63
2023/09/20 13:06:10;;;;;;;3.95;1.95;;;20.50;99.90;;;;;;5112861;27;20399;-63
2023/09/20 13:08:38;;;;;;;3.03;1.70;;;20.60;99.90;;;;;;5112942;27;20035;-63
2023/09/20 13:11:05;;;;;;;3.25;1.92;;;20.70;99.90;;;;;;5129320;27;20091;-62
2023/09/20 13:13:40;;;;;;;3.00;1.80;;;20.80;99.90;;;;;;5122387;27;20074;-64
2023/09/20 13:16:09;;;;;;;3.63;1.88;;;20.90;99.90;;;;;;5098909;27;20129;-63
2023/09/20 13:18:38;;;;;;;4.90;2.10;;;21.00;99.90;;;;;;5119819;27;20047;-64
2023/09/20 13:21:04;;;;;;;5.32;2.08;;;21.00;99.90;;;;;;5116165;27;20097;-64
2023/09/20 13:23:30;;;;;;;4.80;1.95;;;21.00;99.90;;;;;;5118239;27;20486;-64
2023/09/20 13:25:56;;;;;;;3.42;2.20;;;21.00;99.90;;;;;;5120617;27;20034;-63
2023/09/20 13:28:22;;;;;;;3.50;2.22;;;21.00;99.90;;;;;;5115567;27;20065;-64
2023/09/20 13:30:48;;;;;;;6.47;2.30;;;20.90;99.90;;;;;;5115949;27;20477;-63